createdAt,value
2023-04-21T00:01:59.656Z,12.20
2023-04-21T00:04:27.411Z,12.20
2023-04-21T00:06:55.274Z,12.20
2023-04-21T00:09:22.488Z,12.20
2023-04-21T00:11:49.408Z,12.20
2023-04-21T00:14:16.365Z,12.10
2023-04-21T00:16:43.278Z,12.20
2023-04-21T00:19:10.506Z,12.10
2023-04-21T00:21:37.512Z,12.10
2023-04-21T00:24:04.754Z,12.00
2023-04-21T00:26:31.704Z,12.00
2023-04-21T00:28:58.895Z,12.00
2023-04-21T00:31:26.025Z,11.90
2023-04-21T00:33:53.999Z,11.90
2023-04-21T00:36:24.757Z,11.90
2023-04-21T00:38:51.751Z,11.90
2023-04-21T00:41:19.105Z,12.00
2023-04-21T00:44:06.267Z,12.00
2023-04-21T00:46:34.586Z,12.00
2023-04-21T00:49:04.563Z,12.00
2023-04-21T00:51:34.377Z,12.00
2023-04-21T00:54:04.041Z,12.00
2023-04-21T00:56:32.615Z,12.00
2023-04-21T00:59:02.229Z,12.00
2023-04-21T01:01:30.212Z,12.00
2023-04-21T01:04:00.301Z,12.00
2023-04-21T01:06:32.370Z,12.00
2023-04-21T01:08:59.409Z,12.00
2023-04-21T01:11:26.466Z,12.00
2023-04-21T01:13:54.638Z,12.10
2023-04-21T01:16:23.235Z,12.10
2023-04-21T01:18:53.481Z,12.20
2023-04-21T01:21:21.722Z,12.20
2023-04-21T01:23:48.850Z,12.30
2023-04-21T01:26:19.541Z,12.30
2023-04-21T01:28:48.686Z,12.40
2023-04-21T01:31:16.967Z,12.40
2023-04-21T01:33:44.689Z,12.50
2023-04-21T01:36:11.709Z,12.50
2023-04-21T01:38:40.509Z,12.50
2023-04-21T01:41:08.458Z,12.60
2023-04-21T01:43:35.857Z,12.60
2023-04-21T01:46:04.148Z,12.60
2023-04-21T01:48:31.184Z,12.60
2023-04-21T01:51:00.184Z,12.60
2023-04-21T01:53:27.156Z,12.60
2023-04-21T01:55:54.191Z,12.70
2023-04-21T01:58:21.855Z,12.70
2023-04-21T02:00:48.862Z,12.70
2023-04-21T02:03:15.921Z,12.70
2023-04-21T02:05:45.961Z,12.70
2023-04-21T02:08:12.950Z,12.70
2023-04-21T02:10:41.567Z,12.80
2023-04-21T02:13:11.954Z,12.80
2023-04-21T02:15:39.105Z,12.70
2023-04-21T02:18:08.383Z,12.70
2023-04-21T02:20:36.245Z,12.70
2023-04-21T02:23:03.304Z,12.60
2023-04-21T02:25:30.811Z,12.50
2023-04-21T02:27:57.792Z,12.50
2023-04-21T02:30:27.729Z,12.40
2023-04-21T02:32:54.879Z,12.40
2023-04-21T02:35:21.949Z,12.50
2023-04-21T02:37:50.838Z,12.50
2023-04-21T02:40:17.877Z,12.40
2023-04-21T02:42:44.924Z,12.40
2023-04-21T02:45:11.973Z,12.40
2023-04-21T02:47:38.925Z,12.40
2023-04-21T02:50:06.739Z,12.30
2023-04-21T02:52:38.027Z,12.30
2023-04-21T02:55:05.497Z,12.30
2023-04-21T02:57:32.431Z,12.30
2023-04-21T03:00:00.416Z,12.40
2023-04-21T03:02:27.522Z,12.40
2023-04-21T03:04:54.586Z,12.50
2023-04-21T03:07:21.689Z,12.50
2023-04-21T03:09:48.693Z,12.60
2023-04-21T03:12:15.749Z,12.60
2023-04-21T03:14:44.662Z,12.70
2023-04-21T03:17:12.454Z,12.70
2023-04-21T03:19:39.401Z,12.70
2023-04-21T03:22:06.855Z,12.70
2023-04-21T03:24:33.998Z,12.70
2023-04-21T03:27:02.539Z,12.70
2023-04-21T03:29:29.547Z,12.80
2023-04-21T03:31:56.576Z,12.80
2023-04-21T03:34:25.394Z,12.80
2023-04-21T03:36:52.428Z,12.80
2023-04-21T03:39:20.344Z,12.80
2023-04-21T03:41:49.349Z,12.90
2023-04-21T03:44:16.507Z,12.90
2023-04-21T03:46:43.480Z,12.90
2023-04-21T03:49:10.402Z,13.00
2023-04-21T03:51:37.311Z,13.00
2023-04-21T03:54:04.290Z,13.00
2023-04-21T03:56:31.183Z,13.00
2023-04-21T03:58:58.164Z,13.00
2023-04-21T04:01:25.075Z,12.90
2023-04-21T04:03:52.099Z,12.90
2023-04-21T04:06:19.106Z,12.80
2023-04-21T04:08:46.492Z,12.80
2023-04-21T04:11:13.434Z,12.80
2023-04-21T04:13:40.584Z,12.70
2023-04-21T04:16:07.907Z,12.70
2023-04-21T04:18:34.828Z,12.60
2023-04-21T04:21:08.122Z,12.60
2023-04-21T04:23:35.448Z,12.60
2023-04-21T04:26:05.656Z,12.50
2023-04-21T04:28:33.692Z,12.50
2023-04-21T04:31:01.061Z,12.40
2023-04-21T04:33:28.010Z,12.40
2023-04-21T04:35:54.956Z,12.30
2023-04-21T04:38:23.084Z,12.30
2023-04-21T04:40:57.701Z,12.30
2023-04-21T04:43:25.594Z,12.20
2023-04-21T04:45:52.651Z,12.20
2023-04-21T04:48:19.876Z,12.20
2023-04-21T04:50:46.893Z,12.30
2023-04-21T04:53:13.926Z,12.30
2023-04-21T04:55:40.832Z,12.40
2023-04-21T04:58:07.824Z,12.40
2023-04-21T05:00:34.876Z,12.50
2023-04-21T05:03:01.898Z,12.50
2023-04-21T05:05:29.128Z,12.60
2023-04-21T05:07:57.359Z,12.70
2023-04-21T05:10:24.495Z,12.70
2023-04-21T05:12:51.471Z,12.80
2023-04-21T05:15:18.684Z,12.90
2023-04-21T05:17:45.656Z,13.00
2023-04-21T05:20:12.812Z,13.10
2023-04-21T05:22:40.459Z,13.20
2023-04-21T05:25:07.684Z,13.20
2023-04-21T05:27:34.756Z,13.20
2023-04-21T05:30:01.872Z,13.10
2023-04-21T05:32:29.373Z,13.10
2023-04-21T05:34:56.715Z,13.10
2023-04-21T05:37:23.680Z,13.10
2023-04-21T05:39:51.200Z,13.10
2023-04-21T05:42:21.898Z,13.10
2023-04-21T05:44:49.021Z,13.10
2023-04-21T05:47:16.074Z,13.20
2023-04-21T05:49:50.130Z,13.20
2023-04-21T05:52:21.501Z,13.30
2023-04-21T05:54:48.653Z,13.30
2023-04-21T05:57:18.472Z,13.30
2023-04-21T05:59:45.485Z,13.40
2023-04-21T06:02:12.926Z,13.40
2023-04-21T06:04:40.044Z,13.50
2023-04-21T06:07:08.305Z,13.60
2023-04-21T06:09:36.277Z,13.70
2023-04-21T06:12:03.871Z,13.80
2023-04-21T06:14:31.198Z,14.00
2023-04-21T06:16:58.529Z,14.20
2023-04-21T06:19:25.719Z,14.40
2023-04-21T06:21:52.818Z,14.60
2023-04-21T06:24:25.170Z,14.90
2023-04-21T06:26:53.336Z,15.00
2023-04-21T06:29:20.948Z,15.10
2023-04-21T06:31:48.396Z,15.20
2023-04-21T06:34:15.888Z,15.20
2023-04-21T06:36:42.922Z,15.30
2023-04-21T06:39:09.931Z,15.30
2023-04-21T06:41:36.908Z,15.30
2023-04-21T06:44:03.873Z,15.40
2023-04-21T06:46:31.447Z,15.50
2023-04-21T06:48:58.482Z,15.80
2023-04-21T06:51:25.670Z,16.20
2023-04-21T06:53:52.605Z,16.70
2023-04-21T06:56:19.479Z,17.50
2023-04-21T06:58:47.118Z,17.90
2023-04-21T07:01:14.158Z,18.10
2023-04-21T07:03:41.413Z,18.20
2023-04-21T07:06:08.508Z,18.40
2023-04-21T07:08:35.721Z,18.60
2023-04-21T07:11:02.881Z,18.90
2023-04-21T07:13:29.924Z,19.10
2023-04-21T07:15:56.933Z,19.20
2023-04-21T07:18:23.937Z,19.30
2023-04-21T07:20:51.327Z,19.40
2023-04-21T07:23:18.894Z,19.50
2023-04-21T07:25:46.077Z,19.40
2023-04-21T07:28:15.163Z,19.30
2023-04-21T07:30:42.258Z,19.40
2023-04-21T07:33:09.459Z,19.50
2023-04-21T07:35:36.452Z,19.50
2023-04-21T07:38:03.486Z,19.70
2023-04-21T07:40:31.307Z,19.80
2023-04-21T07:42:58.133Z,20.50
2023-04-21T07:45:25.225Z,21.90
2023-04-21T07:47:52.242Z,23.10
2023-04-21T07:50:19.313Z,24.00
2023-04-21T07:52:48.116Z,23.80
2023-04-21T07:55:15.224Z,23.30
2023-04-21T07:57:42.165Z,23.00
2023-04-21T08:00:09.631Z,22.40
2023-04-21T08:02:39.367Z,21.90
2023-04-21T08:05:06.523Z,21.60
2023-04-21T08:07:33.590Z,21.50
2023-04-21T08:10:00.803Z,21.50
2023-04-21T08:12:27.625Z,21.70
2023-04-21T08:14:55.725Z,22.20
2023-04-21T08:17:22.689Z,23.30
2023-04-21T08:19:49.856Z,25.10
2023-04-21T08:22:16.704Z,26.90
2023-04-21T08:24:43.497Z,28.40
2023-04-21T08:27:11.190Z,29.50
2023-04-21T08:29:38.117Z,30.90
2023-04-21T08:32:05.177Z,32.00
2023-04-21T08:34:32.196Z,33.00
2023-04-21T08:36:59.092Z,33.40
2023-04-21T08:39:26.884Z,33.70
2023-04-21T08:41:54.965Z,34.00
2023-04-21T08:44:22.225Z,34.50
2023-04-21T08:46:50.552Z,34.50
2023-04-21T08:49:21.496Z,33.90
2023-04-21T08:51:48.563Z,33.40
2023-04-21T08:54:15.733Z,32.90
2023-04-21T08:56:42.625Z,32.90
2023-04-21T08:59:09.524Z,33.00
2023-04-21T09:01:56.349Z,33.20
2023-04-21T09:04:23.724Z,33.40
2023-04-21T09:06:50.728Z,34.00
2023-04-21T09:09:17.887Z,34.60
2023-04-21T09:11:44.757Z,35.20
2023-04-21T09:14:11.565Z,35.50
2023-04-21T09:16:38.444Z,35.90
2023-04-21T09:19:13.656Z,35.70
2023-04-21T09:21:43.792Z,35.60
2023-04-21T09:24:10.692Z,35.60
2023-04-21T09:26:37.547Z,35.60
2023-04-21T09:29:06.495Z,35.60
2023-04-21T09:31:35.237Z,35.80
2023-04-21T09:34:02.491Z,35.80
2023-04-21T09:36:30.534Z,35.60
2023-04-21T09:39:24.232Z,35.60
2023-04-21T09:41:46.113Z,35.30
2023-04-21T09:44:13.035Z,34.80
2023-04-21T09:46:43.573Z,34.40
2023-04-21T09:49:12.367Z,34.80
2023-04-21T09:52:05.908Z,34.90
2023-04-21T09:54:31.839Z,34.10
2023-04-21T09:57:02.789Z,33.50
2023-04-21T09:59:34.860Z,33.00
2023-04-21T10:02:04.693Z,32.30
2023-04-21T10:04:33.216Z,31.60
2023-04-21T10:07:00.904Z,31.60
2023-04-21T10:09:31.146Z,32.00
2023-04-21T10:11:58.104Z,32.00
2023-04-21T10:14:27.706Z,31.20
2023-04-21T10:16:57.927Z,31.00
2023-04-21T10:19:25.896Z,31.50
2023-04-21T10:21:55.428Z,31.50
2023-04-21T10:24:22.492Z,31.30
2023-04-21T10:26:51.472Z,30.40
2023-04-21T10:29:31.234Z,29.10
2023-04-21T10:32:03.291Z,29.10
2023-04-21T10:34:37.500Z,28.40
2023-04-21T10:37:04.686Z,27.60
2023-04-21T10:39:36.209Z,28.00
2023-04-21T10:42:19.721Z,29.00
2023-04-21T10:44:55.416Z,30.40
2023-04-21T10:47:24.956Z,31.60
2023-04-21T10:49:51.788Z,31.80
2023-04-21T10:52:20.845Z,31.80
2023-04-21T10:54:47.624Z,31.30
2023-04-21T10:57:15.770Z,31.20
2023-04-21T10:59:42.895Z,30.40
2023-04-21T11:02:17.870Z,28.60
2023-04-21T11:04:48.431Z,27.20
2023-04-21T11:07:19.776Z,25.80
2023-04-21T11:09:47.589Z,24.70
2023-04-21T11:12:18.314Z,24.00
2023-04-21T11:14:47.967Z,23.60
2023-04-21T11:17:15.836Z,23.40
2023-04-21T11:19:45.881Z,23.60
2023-04-21T11:22:12.963Z,24.00
2023-04-21T11:24:43.942Z,24.50
2023-04-21T11:27:12.372Z,24.80
2023-04-21T11:29:39.459Z,24.50
2023-04-21T11:32:06.973Z,24.00
2023-04-21T11:34:34.017Z,23.50
2023-04-21T11:37:00.818Z,23.20
2023-04-21T11:39:27.667Z,23.00
2023-04-21T11:41:54.607Z,23.10
2023-04-21T11:44:32.102Z,23.00
2023-04-21T11:46:58.944Z,23.00
2023-04-21T11:49:29.414Z,22.90
2023-04-21T11:51:56.567Z,22.90
2023-04-21T11:54:24.480Z,22.80
2023-04-21T11:56:52.238Z,22.70
2023-04-21T11:59:25.996Z,22.50
2023-04-21T12:01:53.775Z,22.40
2023-04-21T12:04:21.840Z,22.20
2023-04-21T12:07:01.843Z,22.10
2023-04-21T12:09:29.691Z,21.90
2023-04-21T12:11:58.736Z,21.60
2023-04-21T12:14:29.086Z,21.40
2023-04-21T12:16:57.715Z,21.10
2023-04-21T12:19:37.895Z,20.90
2023-04-21T12:22:07.410Z,20.60
2023-04-21T12:24:36.205Z,20.50
2023-04-21T12:27:04.049Z,20.30
2023-04-21T12:29:30.889Z,20.20
2023-04-21T12:31:57.982Z,20.10
2023-04-21T12:34:24.854Z,19.90
2023-04-21T12:36:51.716Z,19.70
2023-04-21T12:39:19.527Z,19.50
2023-04-21T12:41:47.578Z,19.20
2023-04-21T12:44:14.768Z,19.00
2023-04-21T12:46:41.706Z,18.90
2023-04-21T12:49:10.048Z,18.90
2023-04-21T12:51:37.220Z,18.80
2023-04-21T12:54:04.321Z,18.60
2023-04-21T12:56:31.490Z,18.50
2023-04-21T12:58:58.662Z,18.40
2023-04-21T13:01:25.633Z,18.20
2023-04-21T13:03:52.834Z,18.10
2023-04-21T13:06:19.916Z,17.90
2023-04-21T13:08:46.890Z,17.80
2023-04-21T13:11:13.934Z,17.70
2023-04-21T13:13:40.884Z,17.60
2023-04-21T13:16:07.721Z,17.50
2023-04-21T13:18:38.976Z,17.50
2023-04-21T13:21:06.432Z,17.40
2023-04-21T13:23:33.607Z,17.30
2023-04-21T13:26:01.055Z,17.30
2023-04-21T13:28:28.085Z,17.30
2023-04-21T13:30:55.065Z,17.20
2023-04-21T13:33:24.040Z,17.20
2023-04-21T13:35:51.194Z,17.20
2023-04-21T13:38:18.343Z,17.10
2023-04-21T13:40:46.173Z,17.10
2023-04-21T13:43:13.130Z,17.20
2023-04-21T13:45:40.068Z,17.20
2023-04-21T13:48:07.461Z,17.30
2023-04-21T13:50:34.452Z,17.50
2023-04-21T13:53:01.425Z,17.50
2023-04-21T13:55:28.362Z,17.70
2023-04-21T13:57:55.381Z,17.80
2023-04-21T14:00:22.770Z,17.90
2023-04-21T14:02:50.104Z,18.10
2023-04-21T14:05:17.449Z,18.20
2023-04-21T14:07:44.712Z,18.30
2023-04-21T14:10:14.866Z,18.50
2023-04-21T14:12:41.900Z,18.60
2023-04-21T14:15:08.886Z,18.80
2023-04-21T14:17:35.849Z,18.90
2023-04-21T14:20:02.855Z,18.90
2023-04-21T14:22:29.819Z,19.00
2023-04-21T14:24:56.646Z,19.10
2023-04-21T14:27:23.530Z,19.00
2023-04-21T14:29:50.455Z,18.90
2023-04-21T14:32:19.482Z,18.90
2023-04-21T14:34:47.088Z,18.90
2023-04-21T14:37:13.984Z,19.00
2023-04-21T14:39:41.265Z,19.00
2023-04-21T14:42:08.152Z,19.20
2023-04-21T14:44:35.794Z,19.40
2023-04-21T14:47:09.611Z,19.50
2023-04-21T14:49:38.312Z,19.70
2023-04-21T14:52:05.543Z,20.10
2023-04-21T14:54:32.430Z,20.60
2023-04-21T14:57:17.815Z,21.20
2023-04-21T14:59:48.024Z,21.80
2023-04-21T15:02:15.465Z,22.50
2023-04-21T15:04:42.732Z,23.00
2023-04-21T15:07:09.750Z,23.30
2023-04-21T15:09:37.202Z,23.50
2023-04-21T15:12:04.647Z,23.50
2023-04-21T15:14:31.493Z,23.30
2023-04-21T15:16:58.366Z,23.10
2023-04-21T15:19:25.718Z,22.90
2023-04-21T15:21:52.867Z,22.80
2023-04-21T15:24:19.794Z,22.60
2023-04-21T15:26:46.660Z,22.40
2023-04-21T15:29:13.531Z,22.30
2023-04-21T15:31:40.731Z,22.20
2023-04-21T15:34:07.984Z,22.20
2023-04-21T15:36:34.892Z,22.10
2023-04-21T15:39:01.888Z,22.00
2023-04-21T15:41:31.388Z,21.90
2023-04-21T15:44:01.098Z,21.90
2023-04-21T15:46:28.155Z,21.80
2023-04-21T15:48:55.117Z,21.70
2023-04-21T15:51:22.019Z,21.60
2023-04-21T15:53:49.397Z,21.50
2023-04-21T15:56:16.783Z,21.40
2023-04-21T15:58:44.077Z,21.30
2023-04-21T16:01:14.042Z,21.10
2023-04-21T16:03:41.158Z,21.00
2023-04-21T16:06:08.327Z,21.00
2023-04-21T16:08:35.211Z,20.90
2023-04-21T16:11:02.150Z,20.80
2023-04-21T16:13:29.178Z,20.60
2023-04-21T16:15:56.470Z,20.50
2023-04-21T16:18:23.466Z,20.50
2023-04-21T16:20:50.535Z,20.50
2023-04-21T16:23:17.465Z,20.50
2023-04-21T16:25:44.577Z,20.40
2023-04-21T16:28:11.719Z,20.30
2023-04-21T16:30:43.316Z,20.10
2023-04-21T16:33:11.537Z,19.90
2023-04-21T16:35:39.056Z,19.70
2023-04-21T16:38:06.518Z,19.50
2023-04-21T16:40:33.445Z,19.30
2023-04-21T16:43:00.435Z,19.10
2023-04-21T16:45:27.907Z,18.80
2023-04-21T16:47:54.968Z,18.60
2023-04-21T16:50:22.425Z,18.40
2023-04-21T16:52:49.663Z,18.20
2023-04-21T16:55:16.610Z,18.00
2023-04-21T16:57:43.508Z,17.80
2023-04-21T17:00:11.022Z,17.70
2023-04-21T17:02:38.342Z,17.50
2023-04-21T17:05:05.914Z,17.30
2023-04-21T17:07:34.243Z,17.20
2023-04-21T17:10:01.306Z,17.00
2023-04-21T17:12:28.462Z,16.80
2023-04-21T17:14:55.517Z,16.70
2023-04-21T17:17:22.680Z,16.60
2023-04-21T17:19:49.883Z,16.40
2023-04-21T17:22:17.018Z,16.40
2023-04-21T17:24:53.078Z,16.30
2023-04-21T17:27:21.489Z,16.20
2023-04-21T17:29:48.645Z,16.10
2023-04-21T17:32:17.050Z,16.00
2023-04-21T17:34:44.364Z,15.90
2023-04-21T17:37:11.604Z,15.80
2023-04-21T17:39:38.781Z,15.70
2023-04-21T17:42:05.905Z,15.70
2023-04-21T17:44:33.143Z,15.60
2023-04-21T17:47:00.652Z,15.50
2023-04-21T17:49:27.815Z,15.40
2023-04-21T17:51:54.839Z,15.30
2023-04-21T17:54:21.875Z,15.20
2023-04-21T17:56:48.979Z,15.20
2023-04-21T17:59:16.351Z,15.20
2023-04-21T18:01:43.434Z,15.10
2023-04-21T18:04:10.725Z,15.10
2023-04-21T18:06:37.883Z,15.00
2023-04-21T18:09:05.153Z,15.00
2023-04-21T18:11:32.556Z,14.90
2023-04-21T18:13:59.844Z,14.90
2023-04-21T18:16:27.360Z,14.80
2023-04-21T18:18:54.321Z,14.70
2023-04-21T18:21:21.494Z,14.70
2023-04-21T18:23:49.186Z,14.70
2023-04-21T18:26:16.293Z,14.60
2023-04-21T18:28:43.246Z,14.60
2023-04-21T18:31:10.424Z,14.60
2023-04-21T18:33:37.457Z,14.50
2023-04-21T18:36:05.160Z,14.40
2023-04-21T18:38:32.289Z,14.40
2023-04-21T18:40:59.349Z,14.40
2023-04-21T18:43:26.327Z,14.30
2023-04-21T18:45:53.490Z,14.30
2023-04-21T18:48:20.459Z,14.20
2023-04-21T18:50:47.387Z,14.20
2023-04-21T18:53:14.285Z,14.20
2023-04-21T18:55:41.248Z,14.10
2023-04-21T18:58:08.164Z,14.10
2023-04-21T19:00:39.007Z,14.10
2023-04-21T19:03:06.798Z,14.10
2023-04-21T19:05:36.151Z,14.10
2023-04-21T19:08:03.311Z,14.00
2023-04-21T19:10:30.520Z,14.00
2023-04-21T19:12:57.467Z,14.00
2023-04-21T19:15:24.437Z,14.00
2023-04-21T19:17:51.444Z,13.90
2023-04-21T19:20:18.528Z,13.90
2023-04-21T19:22:45.756Z,13.90
2023-04-21T19:25:12.922Z,13.90
2023-04-21T19:27:41.060Z,13.90
2023-04-21T19:30:08.890Z,13.90
2023-04-21T19:32:35.900Z,13.80
2023-04-21T19:35:03.667Z,13.80
2023-04-21T19:37:32.293Z,13.80
2023-04-21T19:40:00.645Z,13.80
2023-04-21T19:42:27.628Z,13.80
2023-04-21T19:44:54.546Z,13.80
2023-04-21T19:47:21.791Z,13.70
2023-04-21T19:49:49.389Z,13.70
2023-04-21T19:52:16.440Z,13.80
2023-04-21T19:54:43.344Z,13.70
2023-04-21T19:57:10.396Z,13.70
2023-04-21T19:59:37.649Z,13.70
2023-04-21T20:02:05.099Z,13.70
2023-04-21T20:04:34.825Z,13.70
2023-04-21T20:07:02.147Z,13.70
2023-04-21T20:09:29.458Z,13.60
2023-04-21T20:11:56.659Z,13.60
2023-04-21T20:14:23.599Z,13.60
2023-04-21T20:16:50.689Z,13.60
2023-04-21T20:19:17.856Z,13.60
2023-04-21T20:21:44.970Z,13.50
2023-04-21T20:24:12.271Z,13.50
2023-04-21T20:26:39.329Z,13.50
2023-04-21T20:29:06.331Z,13.50
2023-04-21T20:31:33.441Z,13.50
2023-04-21T20:34:00.515Z,13.50
2023-04-21T20:36:28.444Z,13.50
2023-04-21T20:38:57.186Z,13.50
2023-04-21T20:41:24.217Z,13.50
2023-04-21T20:43:51.980Z,13.50
2023-04-21T20:46:18.963Z,13.50
2023-04-21T20:48:45.967Z,13.50
2023-04-21T20:51:13.608Z,13.50
2023-04-21T20:53:40.589Z,13.50
2023-04-21T20:56:08.078Z,13.50
2023-04-21T20:58:36.132Z,13.40
2023-04-21T21:01:03.285Z,13.40
2023-04-21T21:03:30.792Z,13.40
2023-04-21T21:05:57.999Z,13.40
2023-04-21T21:08:25.025Z,13.40
2023-04-21T21:10:51.937Z,13.30
2023-04-21T21:13:18.916Z,13.30
2023-04-21T21:15:46.817Z,13.30
2023-04-21T21:18:14.016Z,13.30
2023-04-21T21:20:41.037Z,13.30
2023-04-21T21:23:08.144Z,13.30
2023-04-21T21:25:35.341Z,13.30
2023-04-21T21:28:02.326Z,13.30
2023-04-21T21:30:30.118Z,13.30
2023-04-21T21:32:57.737Z,13.30
2023-04-21T21:35:24.726Z,13.30
2023-04-21T21:37:51.898Z,13.30
2023-04-21T21:40:18.846Z,13.30
2023-04-21T21:42:45.975Z,13.30
2023-04-21T21:45:12.957Z,13.20
2023-04-21T21:47:43.881Z,13.20
2023-04-21T21:50:12.669Z,13.20
2023-04-21T21:52:39.573Z,13.20
2023-04-21T21:55:07.092Z,13.10
2023-04-21T21:57:34.379Z,13.10
2023-04-21T22:00:02.090Z,13.10
2023-04-21T22:02:32.064Z,13.10
2023-04-21T22:04:59.662Z,13.10
2023-04-21T22:07:26.796Z,13.00
2023-04-21T22:09:53.782Z,13.00
2023-04-21T22:12:20.902Z,13.00
2023-04-21T22:14:47.804Z,13.00
2023-04-21T22:17:15.920Z,12.90
2023-04-21T22:19:43.129Z,13.00
2023-04-21T22:22:10.587Z,13.00
2023-04-21T22:24:38.011Z,12.90
2023-04-21T22:27:05.049Z,12.90
2023-04-21T22:29:32.039Z,12.90
2023-04-21T22:31:59.159Z,12.90
2023-04-21T22:34:26.172Z,12.90
2023-04-21T22:36:53.476Z,12.80
2023-04-21T22:39:20.856Z,12.80
2023-04-21T22:41:47.812Z,12.80
2023-04-21T22:44:14.773Z,12.80
2023-04-21T22:46:41.969Z,12.70
2023-04-21T22:49:09.489Z,12.70
2023-04-21T22:51:36.888Z,12.70
2023-04-21T22:54:04.154Z,12.70
2023-04-21T22:56:31.561Z,12.70
2023-04-21T22:58:58.621Z,12.70
2023-04-21T23:01:25.651Z,12.70
2023-04-21T23:03:52.780Z,12.70
2023-04-21T23:06:19.795Z,12.70
2023-04-21T23:08:46.732Z,12.80
2023-04-21T23:11:14.054Z,12.70
2023-04-21T23:13:41.056Z,12.70
2023-04-21T23:16:08.113Z,12.70
2023-04-21T23:18:35.959Z,12.70
2023-04-21T23:21:03.092Z,12.70
2023-04-21T23:23:30.109Z,12.70
2023-04-21T23:25:57.107Z,12.70
2023-04-21T23:28:24.385Z,12.70
2023-04-21T23:30:51.440Z,12.70
2023-04-21T23:33:18.459Z,12.60
2023-04-21T23:35:45.650Z,12.60
2023-04-21T23:38:12.861Z,12.60
2023-04-21T23:40:39.881Z,12.60
2023-04-21T23:43:07.287Z,12.60
2023-04-21T23:45:34.258Z,12.60
2023-04-21T23:48:01.302Z,12.60
2023-04-21T23:50:28.338Z,12.60
2023-04-21T23:52:55.949Z,12.60
2023-04-21T23:55:22.945Z,12.50
2023-04-21T23:57:49.913Z,12.50
